Time;durP1;ratioP1;P1;durP2;ratioP2;P2;SDS_P1;SDS_P2;PMS_P1;PMS_P2;Temp;Humidity;BMP_temperature;BMP_pressure;BME280_temperature;BME280_humidity;BME280_pressure;Samples;Min_cycle;Max_cycle;Signal;HPM_P1;HPM_P2
2022/04/19 00:01:48;;;;;;;0.40;0.40;;;;;;;5.26;69.34;93982.75;2616299;54;20164;-82
2022/04/19 00:04:19;;;;;;;0.50;0.50;;;;;;;5.48;69.35;93949.22;2616198;54;20153;-82
2022/04/19 00:06:48;;;;;;;0.50;0.50;;;;;;;5.91;66.36;93979.00;2616047;54;20149;-81
2022/04/19 00:09:17;;;;;;;1.17;1.17;;;;;;;5.20;67.24;93903.16;2616968;47;20156;-82
2022/04/19 00:11:46;;;;;;;0.67;0.67;;;;;;;5.34;66.63;93898.09;2616801;54;20160;-82
2022/04/19 00:14:20;;;;;;;1.10;0.50;;;;;;;5.30;66.46;93903.59;2616896;54;20153;-82
2022/04/19 00:16:52;;;;;;;0.47;0.47;;;;;;;5.31;67.27;93893.78;2616963;54;20165;-83
2022/04/19 00:19:25;;;;;;;0.70;0.70;;;;;;;5.92;67.41;93938.28;2617011;47;20176;-82
2022/04/19 00:21:54;;;;;;;0.67;0.67;;;;;;;5.20;67.34;93923.53;2611657;54;20402;-83
2022/04/19 00:24:23;;;;;;;0.77;0.77;;;;;;;5.05;68.92;93943.25;2617978;39;20547;-83
2022/04/19 00:26:52;;;;;;;0.40;0.40;;;;;;;5.35;68.30;93950.09;2619054;54;20200;-81
2022/04/19 00:29:24;;;;;;;1.10;1.10;;;;;;;5.02;69.45;93917.19;2619457;54;20172;-82
2022/04/19 00:31:53;;;;;;;0.43;0.43;;;;;;;5.79;67.13;93927.94;2616849;47;20156;-81
2022/04/19 00:34:22;;;;;;;0.43;0.43;;;;;;;5.00;68.32;93929.06;2616399;54;20304;-81
2022/04/19 00:36:51;;;;;;;0.40;0.40;;;;;;;4.25;71.03;93942.66;2616760;54;20153;-81
2022/04/19 00:39:20;;;;;;;0.60;0.60;;;;;;;3.91;73.91;93938.34;2616924;54;20156;-81
2022/04/19 00:41:49;;;;;;;0.40;0.40;;;;;;;3.69;74.16;93931.72;2616428;47;20170;-82
2022/04/19 00:44:20;;;;;;;0.47;0.47;;;;;;;2.98;76.42;93928.38;2616781;39;20717;-81
2022/04/19 00:46:51;;;;;;;0.63;0.63;;;;;;;2.83;77.29;93919.28;2616586;47;20173;-82
2022/04/19 00:49:20;;;;;;;0.60;0.60;;;;;;;3.66;78.04;93924.59;2619697;54;20179;-81
2022/04/19 00:51:52;;;;;;;0.70;0.70;;;;;;;4.31;73.33;93913.47;2617678;54;20150;-82
2022/04/19 00:54:22;;;;;;;1.00;0.60;;;;;;;5.48;72.95;93906.38;2616217;46;20181;-84
2022/04/19 00:56:50;;;;;;;0.47;0.47;;;;;;;6.43;68.38;93924.72;2616473;54;20153;-82
2022/04/19 00:59:20;;;;;;;0.40;0.40;;;;;;;6.28;67.00;93908.75;2616167;54;20236;-82
2022/04/19 01:01:52;;;;;;;0.77;0.77;;;;;;;6.60;65.77;93926.03;2616034;54;20153;-82
2022/04/19 01:04:22;;;;;;;0.73;0.73;;;;;;;6.51;65.38;93903.91;2616537;46;20168;-82
2022/04/19 01:06:55;;;;;;;0.67;0.67;;;;;;;6.70;65.01;93920.75;2616769;54;20258;-81
2022/04/19 01:09:32;;;;;;;0.57;0.57;;;;;;;6.91;63.84;93919.38;2616429;47;20284;-82
2022/04/19 01:14:43;;;;;;;0.60;0.60;;;;;;;7.31;61.77;93913.66;2614676;54;20161;-81
2022/04/19 01:17:18;;;;;;;1.10;1.03;;;;;;;6.41;65.89;93890.94;2615162;46;20160;-82
2022/04/19 01:19:48;;;;;;;0.63;0.63;;;;;;;6.74;63.47;93911.75;2615522;39;20250;-82
2022/04/19 01:22:20;;;;;;;0.80;0.80;;;;;;;5.69;66.14;93905.78;2617150;54;20184;-80
2022/04/19 01:24:50;;;;;;;0.40;0.40;;;;;;;6.81;67.03;93892.97;2616261;47;20176;-80
2022/04/19 01:27:18;;;;;;;0.40;0.40;;;;;;;5.96;65.52;93896.31;2616139;54;20165;-81
2022/04/19 01:29:48;;;;;;;1.10;1.10;;;;;;;5.67;67.59;93824.25;2616324;54;20161;-82
2022/04/19 01:32:20;;;;;;;0.80;0.80;;;;;;;6.68;65.89;93886.94;2616640;54;20161;-81
2022/04/19 01:35:08;;;;;;;1.10;1.10;;;;;;;6.58;64.83;93908.34;2617462;47;20280;-82
2022/04/19 01:37:41;;;;;;;0.63;0.63;;;;;;;6.81;63.83;93850.78;2616611;54;20204;-80
2022/04/19 01:40:21;;;;;;;0.97;0.97;;;;;;;6.55;65.11;93879.47;2616337;46;20179;-81
2022/04/19 01:42:52;;;;;;;0.93;0.93;;;;;;;7.46;66.06;93907.09;2616603;47;20164;-81
2022/04/19 01:45:28;;;;;;;0.70;0.70;;;;;;;7.48;66.52;93893.78;2616480;54;20161;-81
2022/04/19 01:47:58;;;;;;;0.83;0.83;;;;;;;8.28;63.10;93908.16;2617271;39;20551;-81
2022/04/19 01:50:28;;;;;;;0.47;0.47;;;;;;;8.04;59.92;93905.38;2609517;39;20609;-80
2022/04/19 01:53:02;;;;;;;0.70;0.70;;;;;;;8.30;65.34;93922.34;2616648;54;20216;-81
2022/04/19 01:55:31;;;;;;;0.70;0.70;;;;;;;7.97;61.50;93923.47;2620995;47;20176;-80
2022/04/19 01:58:04;;;;;;;0.80;0.80;;;;;;;8.96;64.96;93922.78;2618232;54;20171;-80
2022/04/19 02:00:33;;;;;;;0.80;0.80;;;;;;;7.87;59.15;93894.25;2616300;47;20691;-80
2022/04/19 02:03:07;;;;;;;0.90;0.90;;;;;;;6.67;62.17;93905.19;2616670;54;20163;-81
2022/04/19 02:05:37;;;;;;;0.50;0.50;;;;;;;6.65;64.81;93831.97;2616458;47;20196;-82
2022/04/19 02:08:13;;;;;;;0.90;0.90;;;;;;;6.61;62.47;93848.69;2616383;54;20149;-81
2022/04/19 02:10:42;;;;;;;1.17;1.07;;;;;;;6.41;64.66;93819.91;2618326;47;20156;-81
2022/04/19 02:13:14;;;;;;;1.00;1.00;;;;;;;6.26;62.99;93832.75;2620224;54;20157;-82
2022/04/19 02:15:46;;;;;;;0.87;0.87;;;;;;;5.05;66.36;93812.09;2617950;39;20560;-81
2022/04/19 02:18:16;;;;;;;0.63;0.63;;;;;;;5.89;65.84;93874.94;2616865;54;20264;-82
2022/04/19 02:20:45;;;;;;;0.60;0.60;;;;;;;4.19;67.60;93779.88;2616626;54;20702;-83
2022/04/19 02:23:17;;;;;;;1.00;1.00;;;;;;;5.63;67.01;93886.63;2618928;39;20571;-82
2022/04/19 02:25:47;;;;;;;0.90;0.90;;;;;;;4.82;67.83;93885.47;2617136;54;20161;-82
2022/04/19 02:28:16;;;;;;;0.90;0.90;;;;;;;5.16;70.25;93905.81;2616385;54;20156;-82
2022/04/19 02:30:46;;;;;;;1.03;1.03;;;;;;;6.94;72.70;93901.19;2616121;47;20149;-82
2022/04/19 02:33:19;;;;;;;0.70;0.70;;;;;;;7.30;65.54;93887.56;2616057;47;20184;-82
2022/04/19 02:35:52;;;;;;;0.93;0.93;;;;;;;7.44;68.35;93831.69;2616153;54;20284;-81
2022/04/19 02:38:28;;;;;;;0.80;0.80;;;;;;;6.70;62.61;93821.56;2616410;54;20141;-81
2022/04/19 02:40:58;;;;;;;0.97;0.97;;;;;;;6.89;61.55;93845.41;2616126;47;20157;-82
2022/04/19 02:43:27;;;;;;;0.93;0.93;;;;;;;6.58;65.03;93909.09;2617462;47;20724;-82
2022/04/19 02:45:56;;;;;;;1.83;1.00;;;;;;;6.70;64.13;93877.81;2617900;54;20153;-82
2022/04/19 02:48:25;;;;;;;0.83;0.83;;;;;;;6.42;65.52;93818.53;2618676;54;20177;-82
2022/04/19 02:50:54;;;;;;;0.83;0.83;;;;;;;6.88;66.28;93824.25;2618120;54;20698;-81
2022/04/19 02:53:26;;;;;;;1.03;0.83;;;;;;;6.74;62.00;93805.53;2617992;54;20677;-81
2022/04/19 02:55:58;;;;;;;0.60;0.60;;;;;;;7.44;64.76;93901.38;2619940;47;20187;-81
2022/04/19 02:58:28;;;;;;;2.77;1.70;;;;;;;6.27;63.16;93845.44;2628490;47;20169;-82
2022/04/19 03:00:59;;;;;;;0.70;0.70;;;;;;;7.38;67.57;93899.09;2628637;47;20157;-82
2022/04/19 03:03:29;;;;;;;1.03;1.03;;;;;;;7.65;65.54;93903.47;2623031;47;20732;-82
2022/04/19 03:06:00;;;;;;;0.70;0.70;;;;;;;8.04;64.21;93894.09;2616491;47;20160;-82
2022/04/19 03:08:34;;;;;;;0.80;0.80;;;;;;;8.53;61.74;93907.50;2616359;39;20548;-82
2022/04/19 03:11:05;;;;;;;0.90;0.90;;;;;;;8.14;59.98;93950.78;2615930;47;20160;-82
2022/04/19 03:13:37;;;;;;;0.93;0.93;;;;;;;8.28;61.25;93840.47;2619266;47;20286;-82
2022/04/19 03:16:10;;;;;;;0.53;0.53;;;;;;;7.69;61.68;93902.88;2617297;54;20187;-82
2022/04/19 03:18:39;;;;;;;0.50;0.50;;;;;;;7.00;61.22;93895.75;2615752;54;20164;-83
2022/04/19 03:21:08;;;;;;;0.73;0.73;;;;;;;6.54;62.89;93927.94;2616513;54;20172;-82
2022/04/19 03:29:11;;;;;;;0.80;0.80;;;;;;;6.50;63.78;93956.63;2614454;47;20149;-82
2022/04/19 03:31:40;;;;;;;0.60;0.60;;;;;;;6.60;64.72;93954.16;2616549;54;20732;-82
2022/04/19 03:34:11;;;;;;;0.70;0.70;;;;;;;6.89;64.84;93939.00;2621608;54;20185;-83
2022/04/19 03:36:40;;;;;;;0.63;0.63;;;;;;;6.81;64.37;93893.72;2620376;47;20265;-82
2022/04/19 03:39:12;;;;;;;0.70;0.70;;;;;;;7.31;64.42;93956.63;2621458;54;20169;-81
2022/04/19 03:41:47;;;;;;;0.73;0.73;;;;;;;8.45;64.55;93963.72;2617839;39;20549;-83
2022/04/19 03:44:25;;;;;;;0.80;0.80;;;;;;;7.66;60.47;93859.81;2616888;54;20696;-82
2022/04/19 03:49:39;;;;;;;0.67;0.67;;;;;;;7.75;63.74;93881.25;2616362;47;20141;-81
2022/04/19 03:52:12;;;;;;;0.50;0.50;;;;;;;7.90;59.21;93893.66;2615922;47;20164;-81
2022/04/19 03:54:47;;;;;;;0.70;0.70;;;;;;;8.88;63.63;93919.75;2616035;47;20772;-81
2022/04/19 03:57:22;;;;;;;0.67;0.67;;;;;;;8.47;61.86;93910.13;2616005;47;20160;-81
2022/04/19 03:59:51;;;;;;;3.60;1.30;;;;;;;7.73;59.77;93855.09;2616151;54;20700;-81
2022/04/19 04:02:20;;;;;;;2.07;1.07;;;;;;;8.43;61.89;93979.84;2616834;47;20176;-83
2022/04/19 04:04:49;;;;;;;0.83;0.83;;;;;;;9.59;62.61;93990.09;2617846;39;20818;-82
2022/04/19 04:07:30;;;;;;;0.80;0.80;;;;;;;8.69;56.48;93866.97;2616164;54;20248;-82
2022/04/19 04:10:02;;;;;;;0.70;0.70;;;;;;;9.38;57.64;93962.00;2616444;39;20619;-83
2022/04/19 04:12:34;;;;;;;0.83;0.60;;;;;;;7.52;58.53;93892.50;2616225;54;20173;-83
2022/04/19 04:15:05;;;;;;;0.77;0.77;;;;;;;6.57;61.07;93861.91;2616466;47;20176;-82
2022/04/19 04:17:36;;;;;;;0.57;0.57;;;;;;;7.30;62.24;93986.16;2617712;54;20208;-82
2022/04/19 04:20:06;;;;;;;1.33;1.33;;;;;;;7.78;62.07;93975.03;2620402;54;20189;-82
2022/04/19 04:22:36;;;;;;;0.60;0.60;;;;;;;7.50;61.68;93988.94;2618144;54;20208;-82
2022/04/19 04:25:09;;;;;;;1.57;1.57;;;;;;;6.99;63.30;93992.84;2616782;54;20153;-83
2022/04/19 04:27:43;;;;;;;1.20;1.20;;;;;;;7.07;66.08;93998.03;2618859;47;20220;-84
2022/04/19 04:30:19;;;;;;;1.23;1.23;;;;;;;6.65;63.75;93963.50;2618672;54;20184;-85
2022/04/19 04:32:48;;;;;;;1.07;1.07;;;;;;;7.87;68.59;93998.56;2616330;54;20156;-83
2022/04/19 04:35:19;;;;;;;0.70;0.70;;;;;;;7.93;61.77;93928.25;2615742;47;20264;-83
2022/04/19 04:37:49;;;;;;;0.80;0.80;;;;;;;9.40;62.38;93947.91;2615916;54;20203;-82
2022/04/19 04:40:44;;;;;;;;;;;;;;;;;;;;;
2022/04/19 04:43:13;;;;;;;1.37;1.27;;;;;;;8.54;61.40;93925.16;2615383;54;20156;-82
2022/04/19 04:45:42;;;;;;;1.27;1.27;;;;;;;9.76;61.02;93994.03;2615613;54;20153;-82
2022/04/19 04:50:52;;;;;;;2.53;2.33;;;;;;;8.73;57.72;93952.50;2618362;47;20244;-82
2022/04/19 04:53:22;;;;;;;2.93;2.17;;;;;;;8.99;61.94;94011.81;2617108;39;20531;-82
2022/04/19 04:55:54;;;;;;;2.20;2.07;;;;;;;9.15;60.04;94014.38;2621369;54;20161;-82
2022/04/19 04:58:23;;;;;;;1.87;1.67;;;;;;;8.85;59.80;94008.59;2616629;54;20161;-82
2022/04/19 05:00:52;;;;;;;1.80;1.70;;;;;;;9.04;59.07;94018.28;2615694;46;20172;-81
2022/04/19 05:03:21;;;;;;;4.17;2.00;;;;;;;8.74;60.99;93987.84;2615654;47;20712;-81
2022/04/19 05:05:49;;;;;;;2.55;2.35;;;;;;;7.94;60.99;94000.19;2615674;54;20392;-81
2022/04/19 05:08:18;;;;;;;2.47;1.77;;;;;;;8.16;60.61;94017.81;2615873;54;20141;-81
2022/04/19 05:10:47;;;;;;;1.53;1.43;;;;;;;7.94;63.01;93986.09;2615482;54;20169;-81
2022/04/19 05:13:19;;;;;;;2.20;1.87;;;;;;;8.37;64.03;94008.59;2615837;47;20161;-80
2022/04/19 05:15:49;;;;;;;1.70;1.60;;;;;;;8.35;62.18;94028.28;2615749;54;20693;-82
2022/04/19 05:18:17;;;;;;;2.00;1.83;;;;;;;8.34;62.49;94009.19;2615896;54;20192;-81
2022/04/19 05:20:46;;;;;;;1.73;1.63;;;;;;;8.28;64.82;93953.31;2616518;54;20167;-81
2022/04/19 05:23:15;;;;;;;1.10;1.10;;;;;;;9.55;62.19;94026.03;2615238;54;20153;-81
2022/04/19 05:25:44;;;;;;;1.57;1.47;;;;;;;8.84;62.32;93976.09;2615618;47;20187;-82
2022/04/19 05:28:13;;;;;;;1.00;1.00;;;;;;;9.25;59.78;94006.16;2615715;54;20676;-79
2022/04/19 05:30:44;;;;;;;1.10;1.10;;;;;;;8.99;58.96;93955.34;2615853;39;20642;-81
2022/04/19 05:33:14;;;;;;;1.50;1.50;;;;;;;8.24;60.03;93922.16;2615462;54;20188;-81
2022/04/19 05:35:43;;;;;;;1.27;1.27;;;;;;;8.20;60.68;93975.59;2615460;47;20176;-80
2022/04/19 05:38:12;;;;;;;1.70;1.60;;;;;;;8.14;62.24;94026.94;2615245;47;20180;-80
2022/04/19 05:40:42;;;;;;;1.43;1.10;;;;;;;7.36;61.67;93903.97;2615041;54;20152;-80
2022/04/19 05:43:11;;;;;;;1.63;1.63;;;;;;;8.50;63.27;94027.34;2614875;54;20153;-81
2022/04/19 05:45:42;;;;;;;1.37;1.33;;;;;;;8.70;61.66;94037.81;2615867;39;20528;-82
2022/04/19 05:48:15;;;;;;;1.27;1.27;;;;;;;8.71;60.24;94011.00;2615062;54;20203;-81
2022/04/19 05:50:47;;;;;;;1.27;1.17;;;;;;;8.36;61.31;94032.56;2614931;47;20176;-82
2022/04/19 05:53:16;;;;;;;1.60;1.50;;;;;;;8.29;59.68;93997.06;2615251;47;20435;-83
2022/04/19 05:55:46;;;;;;;1.73;1.63;;;;;;;8.82;64.13;93976.75;2615702;46;20201;-82
2022/04/19 05:58:27;;;;;;;;;;;;;;;;;;;;;
2022/04/19 06:00:57;;;;;;;1.90;1.80;;;;;;;8.66;60.33;93953.00;2618245;39;20565;-82
2022/04/19 06:06:15;;;;;;;1.47;1.40;;;;;;;8.70;58.84;93958.75;2614809;47;20268;-82
2022/04/19 06:08:45;;;;;;;3.40;3.10;;;;;;;8.82;64.24;94057.91;2615025;47;20281;-83
2022/04/19 06:11:14;;;;;;;3.13;2.87;;;;;;;9.12;66.00;94033.38;2615020;46;20172;-81
2022/04/19 06:13:44;;;;;;;0.90;0.90;;;;;;;8.62;63.05;93984.63;2615463;39;20463;-81
2022/04/19 06:16:13;;;;;;;2.30;2.10;;;;;;;9.02;61.14;93998.47;2615754;54;20225;-82
2022/04/19 06:18:50;;;;;;;1.80;1.70;;;;;;;9.25;62.86;94018.19;2619681;47;20204;-82
2022/04/19 06:24:48;;;;;;;1.77;1.67;;;;;;;8.08;65.23;93952.69;2610635;54;20168;-83
2022/04/19 06:27:52;;;;;;;1.53;1.43;;;;;;;7.82;63.01;93863.13;2615345;46;20180;-82
2022/04/19 06:30:22;;;;;;;4.80;2.93;;;;;;;8.42;62.93;93888.13;2614513;47;20174;-83
2022/04/19 06:32:51;;;;;;;1.37;1.37;;;;;;;8.78;58.89;93978.72;2615652;54;20168;-84
2022/04/19 06:41:15;;;;;;;2.83;2.63;;;;;;;6.23;68.04;93912.75;2613653;47;20886;-83
2022/04/19 06:43:44;;;;;;;2.95;2.75;;;;;;;7.92;68.61;94019.88;2615694;54;20433;-83
2022/04/19 06:49:42;;;;;;;1.03;0.93;;;;;;;7.27;66.68;93972.66;2613467;47;20156;-81
2022/04/19 06:52:14;;;;;;;4.13;2.05;;;;;;;7.45;66.09;93945.81;2614549;47;20555;-82
2022/04/19 06:54:43;;;;;;;2.20;2.00;;;;;;;7.66;66.30;94000.00;2615053;47;20160;-83
2022/04/19 06:57:27;;;;;;;3.10;1.13;;;;;;;7.06;64.77;93923.38;2615954;47;20157;-82
2022/04/19 07:00:41;;;;;;;0.97;0.97;;;;;;;7.73;67.79;94005.19;2616144;52;20157;-81
2022/04/19 07:03:10;;;;;;;1.37;1.37;;;;;;;8.20;67.75;94048.94;2615340;46;20160;-81
2022/04/19 07:05:48;;;;;;;1.40;1.40;;;;;;;8.73;65.23;94061.91;2615804;54;20160;-84
2022/04/19 07:08:20;;;;;;;0.97;0.97;;;;;;;8.32;65.25;94085.34;2615540;54;20159;-81
2022/04/19 07:10:48;;;;;;;1.17;1.17;;;;;;;8.30;64.12;94088.78;2615693;46;20188;-81
2022/04/19 07:13:27;;;;;;;0.97;0.97;;;;;;;7.74;61.21;94065.09;2615159;39;20715;-83
2022/04/19 07:16:02;;;;;;;1.13;1.13;;;;;;;7.20;62.58;94049.88;2618048;54;20164;-84
2022/04/19 07:18:31;;;;;;;0.43;0.43;;;;;;;7.20;63.89;94025.25;2615093;54;20175;-82
2022/04/19 07:30:02;;;;;;;0.63;0.63;;;;;;;7.22;65.97;94055.56;2614490;47;20201;-81
2022/04/19 07:32:49;;;;;;;2.03;1.70;;;;;;;7.13;66.55;94009.50;2614898;54;20219;-81
2022/04/19 07:35:18;;;;;;;1.00;1.00;;;;;;;7.69;66.55;94086.78;2615025;54;20204;-82
2022/04/19 07:38:12;;;;;;;0.97;0.97;;;;;;;7.60;62.92;94085.06;2616837;54;20167;-81
2022/04/19 07:41:14;;;;;;;0.57;0.57;;;;;;;7.38;66.01;94081.50;2618899;54;20152;-84
2022/04/19 07:43:45;;;;;;;0.73;0.50;;;;;;;6.95;66.31;93989.91;2617207;54;20239;-83
2022/04/19 07:46:15;;;;;;;0.80;0.80;;;;;;;7.53;66.77;94018.59;2616268;46;20165;-83
2022/04/19 07:48:44;;;;;;;0.70;0.70;;;;;;;7.36;63.81;94062.44;2615483;47;20173;-82
2022/04/19 07:51:19;;;;;;;0.77;0.77;;;;;;;7.98;63.04;94093.38;2615394;54;20237;-83
2022/04/19 07:53:57;;;;;;;0.70;0.70;;;;;;;7.09;63.15;93948.16;2615494;47;20693;-84
2022/04/19 07:57:40;;;;;;;3.20;0.77;;;;;;;7.53;64.99;93995.34;2616115;54;20648;-85
2022/04/19 08:00:56;;;;;;;;;;;;;;;;;;;;;
2022/04/19 08:09:41;;;;;;;1.13;1.03;;;;;;;7.04;61.13;93976.81;2621039;46;20176;-79
2022/04/19 08:12:53;;;;;;;0.50;0.50;;;;;;;6.80;62.42;94063.22;2616836;54;20207;-82
